createdAt,value
2022-09-20T00:01:32.303Z,79.40
2022-09-20T00:04:01.768Z,79.40
2022-09-20T00:06:31.257Z,79.40
2022-09-20T00:09:01.154Z,79.40
2022-09-20T00:11:31.712Z,80.20
2022-09-20T00:14:01.177Z,79.40
2022-09-20T00:16:32.107Z,79.50
2022-09-20T00:19:01.340Z,79.50
2022-09-20T00:21:30.497Z,79.60
2022-09-20T00:23:58.571Z,79.60
2022-09-20T00:26:27.942Z,79.60
2022-09-20T00:28:57.886Z,79.70
2022-09-20T00:31:26.034Z,79.70
2022-09-20T00:34:14.843Z,79.70
2022-09-20T00:36:42.635Z,79.70
2022-09-20T00:39:12.808Z,79.80
2022-09-20T00:41:40.299Z,79.80
2022-09-20T00:44:45.334Z,79.70
2022-09-20T00:47:19.472Z,79.90
2022-09-20T00:49:47.721Z,79.70
2022-09-20T00:52:15.767Z,79.80
2022-09-20T00:54:43.147Z,79.80
2022-09-20T00:57:10.800Z,79.70
2022-09-20T00:59:41.887Z,79.70
2022-09-20T01:02:18.035Z,79.60
2022-09-20T01:04:47.729Z,79.70
2022-09-20T01:07:19.032Z,79.60
2022-09-20T01:09:46.440Z,79.70
2022-09-20T01:12:23.395Z,79.60
2022-09-20T01:14:52.390Z,79.60
2022-09-20T01:17:22.786Z,79.50
2022-09-20T01:20:14.572Z,79.60
2022-09-20T01:23:07.258Z,79.70
2022-09-20T01:26:01.987Z,79.60
2022-09-20T01:28:30.208Z,79.60
2022-09-20T01:31:15.411Z,79.50
2022-09-20T01:34:08.130Z,79.70
2022-09-20T01:37:03.000Z,79.90
2022-09-20T01:39:55.449Z,79.90
2022-09-20T01:42:32.143Z,79.80
2022-09-20T01:45:17.592Z,79.80
2022-09-20T01:48:09.019Z,79.80
2022-09-20T01:51:03.980Z,79.90
2022-09-20T01:53:37.068Z,79.90
2022-09-20T01:56:47.118Z,79.80
2022-09-20T01:59:47.117Z,80.00
2022-09-20T02:02:56.459Z,80.10
2022-09-20T02:05:28.088Z,80.10
2022-09-20T02:08:25.914Z,79.90
2022-09-20T02:11:14.246Z,80.00
2022-09-20T02:13:51.408Z,79.90
2022-09-20T02:16:50.903Z,79.70
2022-09-20T02:19:33.595Z,79.90
2022-09-20T02:22:20.899Z,79.80
2022-09-20T02:25:10.075Z,79.80
2022-09-20T02:27:40.456Z,79.90
2022-09-20T02:30:14.922Z,79.90
2022-09-20T02:32:51.285Z,80.10
2022-09-20T02:35:51.483Z,80.00
2022-09-20T02:38:50.080Z,80.10
2022-09-20T02:41:35.556Z,79.90
2022-09-20T02:44:20.965Z,79.70
2022-09-20T02:47:02.174Z,79.80
2022-09-20T02:50:07.184Z,79.70
2022-09-20T02:53:12.442Z,79.70
2022-09-20T02:55:58.032Z,79.60
2022-09-20T02:58:44.538Z,79.60
2022-09-20T03:01:52.820Z,79.60
2022-09-20T03:05:04.687Z,79.80
2022-09-20T03:07:40.731Z,79.80
2022-09-20T03:10:16.907Z,79.80
2022-09-20T03:13:03.055Z,79.70
2022-09-20T03:15:54.671Z,79.70
2022-09-20T03:18:38.673Z,79.70
2022-09-20T03:21:22.639Z,79.60
2022-09-20T03:24:11.739Z,79.50
2022-09-20T03:26:58.094Z,79.50
2022-09-20T03:30:00.625Z,79.50
2022-09-20T03:32:46.858Z,79.50
2022-09-20T03:35:41.158Z,79.40
2022-09-20T03:38:35.136Z,79.30
2022-09-20T03:41:17.252Z,79.30
2022-09-20T03:43:56.935Z,79.40
2022-09-20T03:46:30.051Z,79.50
2022-09-20T03:49:25.984Z,79.50
2022-09-20T03:52:35.458Z,79.60
2022-09-20T03:55:23.995Z,79.70
2022-09-20T03:58:30.395Z,79.70
2022-09-20T04:01:17.213Z,79.80
2022-09-20T04:04:11.797Z,79.60
2022-09-20T04:06:54.383Z,79.70
2022-09-20T04:09:47.607Z,80.50
2022-09-20T04:12:28.526Z,80.00
2022-09-20T04:15:23.144Z,79.90
2022-09-20T04:18:21.160Z,80.00
2022-09-20T04:21:11.472Z,80.10
2022-09-20T04:23:50.610Z,80.10
2022-09-20T04:26:26.124Z,80.10
2022-09-20T04:29:34.089Z,80.20
2022-09-20T04:32:25.824Z,80.10
2022-09-20T04:35:21.095Z,79.70
2022-09-20T04:37:49.457Z,79.40
2022-09-20T04:40:47.501Z,79.90
2022-09-20T04:43:53.616Z,79.40
2022-09-20T04:46:36.362Z,79.60
2022-09-20T04:49:24.747Z,79.70
2022-09-20T04:52:28.880Z,80.10
2022-09-20T04:55:31.831Z,80.40
2022-09-20T04:58:11.817Z,80.30
2022-09-20T05:01:16.338Z,80.30
2022-09-20T05:04:16.264Z,80.50
2022-09-20T05:07:23.766Z,80.60
2022-09-20T05:09:51.322Z,80.60
2022-09-20T05:12:31.040Z,80.50
2022-09-20T05:15:17.275Z,80.60
2022-09-20T05:18:06.307Z,80.70
2022-09-20T05:20:59.710Z,80.70
2022-09-20T05:23:52.551Z,80.70
2022-09-20T05:26:32.041Z,80.60
2022-09-20T05:29:21.694Z,80.60
2022-09-20T05:32:23.999Z,80.80
2022-09-20T05:34:57.158Z,80.80
2022-09-20T05:37:44.029Z,80.80
2022-09-20T05:40:34.551Z,80.80
2022-09-20T05:43:37.860Z,80.80
2022-09-20T05:46:14.682Z,80.60
2022-09-20T05:49:05.543Z,80.60
2022-09-20T05:52:06.239Z,80.80
2022-09-20T05:54:54.680Z,80.80
2022-09-20T05:58:01.275Z,80.80
2022-09-20T06:00:40.715Z,80.60
2022-09-20T06:03:34.884Z,80.60
2022-09-20T06:06:37.943Z,80.70
2022-09-20T06:09:25.630Z,80.70
2022-09-20T06:12:16.146Z,80.70
2022-09-20T06:15:11.310Z,80.40
2022-09-20T06:17:49.486Z,80.20
2022-09-20T06:20:46.091Z,80.10
2022-09-20T06:23:14.495Z,80.00
2022-09-20T06:25:48.240Z,79.90
2022-09-20T06:28:19.140Z,80.00
2022-09-20T06:30:48.633Z,79.90
2022-09-20T06:33:28.368Z,79.80
2022-09-20T06:36:46.942Z,79.80
2022-09-20T06:39:47.164Z,79.90
2022-09-20T06:42:14.857Z,80.00
2022-09-20T06:44:43.276Z,79.90
2022-09-20T06:47:12.207Z,80.20
2022-09-20T06:49:42.253Z,80.50
2022-09-20T06:52:15.468Z,80.50
2022-09-20T06:54:45.737Z,80.40
2022-09-20T06:57:16.695Z,80.50
2022-09-20T06:59:45.045Z,80.50
2022-09-20T07:02:12.459Z,80.30
2022-09-20T07:04:40.105Z,80.40
2022-09-20T07:07:09.606Z,80.40
2022-09-20T07:09:37.242Z,80.00
2022-09-20T07:12:04.566Z,79.60
2022-09-20T07:14:32.030Z,79.60
2022-09-20T07:16:59.344Z,79.40
2022-09-20T07:19:26.760Z,79.50
2022-09-20T07:21:54.309Z,79.00
2022-09-20T07:24:21.707Z,77.60
2022-09-20T07:26:58.898Z,77.30
2022-09-20T07:29:27.160Z,76.80
2022-09-20T07:31:55.864Z,76.70
2022-09-20T07:34:23.985Z,76.70
2022-09-20T07:36:52.190Z,76.40
2022-09-20T07:39:19.999Z,76.10
2022-09-20T07:41:50.548Z,75.80
2022-09-20T07:44:22.119Z,75.50
2022-09-20T07:47:00.300Z,75.20
2022-09-20T07:49:31.922Z,75.20
2022-09-20T07:51:59.219Z,75.00
2022-09-20T07:54:27.626Z,75.20
2022-09-20T07:56:55.086Z,75.30
2022-09-20T07:59:22.550Z,74.70
2022-09-20T08:01:50.004Z,74.90
2022-09-20T08:04:17.676Z,74.70
2022-09-20T08:06:46.517Z,74.70
2022-09-20T08:09:14.335Z,74.90
2022-09-20T08:11:43.543Z,74.90
2022-09-20T08:14:15.775Z,75.00
2022-09-20T08:16:48.567Z,74.80
2022-09-20T08:19:21.608Z,74.90
2022-09-20T08:21:51.106Z,75.20
2022-09-20T08:24:18.931Z,75.10
2022-09-20T08:26:48.310Z,75.20
2022-09-20T08:29:16.034Z,75.40
2022-09-20T08:31:43.899Z,75.20
2022-09-20T08:34:13.863Z,75.00
2022-09-20T08:36:46.268Z,75.00
2022-09-20T08:42:36.648Z,74.70
2022-09-20T08:45:34.379Z,75.40
2022-09-20T08:48:05.978Z,76.00
2022-09-20T08:50:36.748Z,76.70
2022-09-20T08:53:04.935Z,76.00
2022-09-20T08:55:40.196Z,75.80
2022-09-20T08:58:14.120Z,75.30
2022-09-20T09:00:45.680Z,74.30
2022-09-20T09:03:16.814Z,73.60
2022-09-20T09:05:45.308Z,73.10
2022-09-20T09:08:16.913Z,72.70
2022-09-20T09:10:54.160Z,72.70
2022-09-20T09:14:01.483Z,71.50
2022-09-20T09:16:35.336Z,71.70
2022-09-20T09:19:34.274Z,70.50
2022-09-20T09:22:05.981Z,70.60
2022-09-20T09:24:33.786Z,70.50
2022-09-20T09:27:19.429Z,70.70
2022-09-20T09:29:56.759Z,70.70
2022-09-20T09:32:31.085Z,70.80
2022-09-20T09:35:31.827Z,70.50
2022-09-20T09:38:01.879Z,70.20
2022-09-20T09:40:32.196Z,70.20
2022-09-20T09:43:02.849Z,70.40
2022-09-20T09:45:36.186Z,70.20
2022-09-20T09:48:23.138Z,71.20
2022-09-20T09:50:51.028Z,70.80
2022-09-20T09:53:24.739Z,71.20
2022-09-20T09:55:59.151Z,71.60
2022-09-20T09:58:41.579Z,71.20
2022-09-20T10:01:27.210Z,71.60
2022-09-20T10:04:24.582Z,71.60
2022-09-20T10:07:20.986Z,71.00
2022-09-20T10:09:53.852Z,70.30
2022-09-20T10:12:30.358Z,69.80
2022-09-20T10:15:21.229Z,68.20
2022-09-20T10:18:23.535Z,66.50
2022-09-20T10:21:12.675Z,66.30
2022-09-20T10:24:02.435Z,65.80
2022-09-20T10:26:48.125Z,65.80
2022-09-20T10:29:49.816Z,66.30
2022-09-20T10:33:02.887Z,65.80
2022-09-20T10:35:39.050Z,66.80
2022-09-20T10:38:29.539Z,65.10
2022-09-20T10:41:30.420Z,65.60
2022-09-20T10:44:07.190Z,65.80
2022-09-20T10:46:46.301Z,66.00
2022-09-20T10:49:23.582Z,65.60
2022-09-20T10:52:23.358Z,66.00
2022-09-20T10:55:06.219Z,66.60
2022-09-20T10:58:10.206Z,66.40
2022-09-20T11:00:48.278Z,64.30
2022-09-20T11:03:43.184Z,65.30
2022-09-20T11:06:40.388Z,65.70
2022-09-20T11:09:14.006Z,65.20
2022-09-20T11:11:49.417Z,65.50
2022-09-20T11:14:31.727Z,65.50
2022-09-20T11:17:14.518Z,65.70
2022-09-20T11:19:56.476Z,63.80
2022-09-20T11:22:32.414Z,63.50
2022-09-20T11:25:29.371Z,62.70
2022-09-20T11:28:20.639Z,62.50
2022-09-20T11:31:06.427Z,61.90
2022-09-20T11:33:52.837Z,59.80
2022-09-20T11:36:26.987Z,59.20
2022-09-20T11:38:57.637Z,60.70
2022-09-20T11:41:30.085Z,60.10
2022-09-20T11:44:04.247Z,60.20
2022-09-20T11:46:37.217Z,59.80
2022-09-20T11:49:16.084Z,59.50
2022-09-20T11:52:14.055Z,60.00
2022-09-20T11:55:05.688Z,60.10
2022-09-20T11:57:34.757Z,59.90
2022-09-20T12:00:05.060Z,59.80
2022-09-20T12:02:49.088Z,59.30
2022-09-20T12:05:41.372Z,57.60
2022-09-20T12:08:33.900Z,58.20
2022-09-20T12:11:10.638Z,59.20
2022-09-20T12:13:40.374Z,58.70
2022-09-20T12:16:15.690Z,57.70
2022-09-20T12:18:53.916Z,57.40
2022-09-20T12:21:22.312Z,56.60
2022-09-20T12:23:52.494Z,56.20
2022-09-20T12:26:21.505Z,56.00
2022-09-20T12:28:49.872Z,56.00
2022-09-20T12:31:26.024Z,55.70
2022-09-20T12:34:01.883Z,55.50
2022-09-20T12:36:36.306Z,56.00
2022-09-20T12:39:03.782Z,56.40
2022-09-20T12:41:51.514Z,56.90
2022-09-20T12:44:40.205Z,56.70
2022-09-20T12:47:10.637Z,58.10
2022-09-20T12:49:56.834Z,59.00
2022-09-20T12:52:52.124Z,59.60
2022-09-20T12:55:33.575Z,59.70
2022-09-20T12:58:12.254Z,61.40
2022-09-20T13:00:47.079Z,60.00
2022-09-20T13:03:21.568Z,61.60
2022-09-20T13:06:11.195Z,61.60
2022-09-20T13:08:50.592Z,62.30
2022-09-20T13:11:23.384Z,62.10
2022-09-20T13:14:03.283Z,61.40
2022-09-20T13:16:49.275Z,61.60
2022-09-20T13:19:31.640Z,61.10
2022-09-20T13:22:34.575Z,60.60
2022-09-20T13:25:05.042Z,61.10
2022-09-20T13:28:01.183Z,60.80
2022-09-20T13:30:33.591Z,60.80
2022-09-20T13:33:20.367Z,60.30
2022-09-20T13:35:51.394Z,60.80
2022-09-20T13:38:24.954Z,61.50
2022-09-20T13:41:00.510Z,61.10
2022-09-20T13:43:32.113Z,60.90
2022-09-20T13:46:06.842Z,60.50
2022-09-20T13:48:34.591Z,60.80
2022-09-20T13:51:02.482Z,61.10
2022-09-20T13:53:41.544Z,61.10
2022-09-20T13:56:21.623Z,61.80
2022-09-20T13:58:50.940Z,62.10
2022-09-20T14:01:34.270Z,62.80
2022-09-20T14:04:13.287Z,63.50
2022-09-20T14:06:42.340Z,62.80
2022-09-20T14:09:31.414Z,63.50
2022-09-20T14:11:59.843Z,61.60
2022-09-20T14:14:28.792Z,61.40
2022-09-20T14:16:58.028Z,59.80
2022-09-20T14:19:37.050Z,59.30
2022-09-20T14:22:06.267Z,58.10
2022-09-20T14:24:36.566Z,57.40
2022-09-20T14:27:20.296Z,58.40
2022-09-20T14:29:55.142Z,59.60
2022-09-20T14:32:38.369Z,60.60
2022-09-20T14:35:19.032Z,61.10
2022-09-20T14:37:50.811Z,60.10
2022-09-20T14:40:30.493Z,61.90
2022-09-20T14:43:03.439Z,61.80
2022-09-20T14:45:33.964Z,62.90
2022-09-20T14:48:09.364Z,64.30
2022-09-20T14:50:38.199Z,64.50
2022-09-20T14:53:26.528Z,63.60
2022-09-20T14:56:11.485Z,63.30
2022-09-20T14:59:05.468Z,64.90
2022-09-20T15:01:34.770Z,63.20
2022-09-20T15:04:10.435Z,64.20
2022-09-20T15:06:39.947Z,65.90
2022-09-20T15:09:12.127Z,65.40
2022-09-20T15:11:40.757Z,64.90
2022-09-20T15:14:08.331Z,65.40
2022-09-20T15:16:36.143Z,65.70
2022-09-20T15:19:05.792Z,66.40
2022-09-20T15:21:33.593Z,65.60
2022-09-20T15:24:01.272Z,65.20
2022-09-20T15:26:29.284Z,65.80
2022-09-20T15:28:56.887Z,65.60
2022-09-20T15:31:24.320Z,65.80
2022-09-20T15:33:51.958Z,65.90
2022-09-20T15:36:19.515Z,65.30
2022-09-20T15:38:47.112Z,65.30
2022-09-20T15:41:14.559Z,65.40
2022-09-20T15:43:43.195Z,65.60
2022-09-20T15:46:22.067Z,65.80
2022-09-20T15:48:49.935Z,66.60
2022-09-20T15:51:17.467Z,65.20
2022-09-20T15:53:54.270Z,64.70
2022-09-20T15:56:24.275Z,65.60
2022-09-20T15:59:04.167Z,67.10
2022-09-20T16:01:33.155Z,66.70
2022-09-20T16:04:06.370Z,66.90
2022-09-20T16:06:34.201Z,66.90
2022-09-20T16:09:01.933Z,67.80
2022-09-20T16:11:29.853Z,68.50
2022-09-20T16:13:59.113Z,68.20
2022-09-20T16:16:28.943Z,68.40
2022-09-20T16:19:15.916Z,69.60
2022-09-20T16:21:52.494Z,69.80
2022-09-20T16:24:24.614Z,70.40
2022-09-20T16:26:52.076Z,70.40
2022-09-20T16:29:22.024Z,70.30
2022-09-20T16:31:50.566Z,70.10
2022-09-20T16:34:20.831Z,70.50
2022-09-20T16:36:53.768Z,70.90
2022-09-20T16:39:29.092Z,71.30
2022-09-20T16:42:04.874Z,71.00
2022-09-20T16:44:34.473Z,71.30
2022-09-20T16:47:03.238Z,71.30
2022-09-20T16:49:30.622Z,71.30
2022-09-20T16:51:58.067Z,71.30
2022-09-20T16:54:28.529Z,71.70
2022-09-20T16:56:59.287Z,71.70
2022-09-20T16:59:26.887Z,71.80
2022-09-20T17:01:55.025Z,72.30
2022-09-20T17:04:22.573Z,72.50
2022-09-20T17:06:51.984Z,72.70
2022-09-20T17:09:19.783Z,72.80
2022-09-20T17:11:50.098Z,72.90
2022-09-20T17:14:21.015Z,73.30
2022-09-20T17:16:49.525Z,73.70
2022-09-20T17:19:19.135Z,73.60
2022-09-20T17:21:51.679Z,73.70
2022-09-20T17:24:20.870Z,73.80
2022-09-20T17:26:50.148Z,73.70
2022-09-20T17:29:18.991Z,73.90
2022-09-20T17:31:54.398Z,74.00
2022-09-20T17:34:23.763Z,74.00
2022-09-20T17:36:51.299Z,73.90
2022-09-20T17:39:18.765Z,74.10
2022-09-20T17:41:48.479Z,74.40
2022-09-20T17:44:16.724Z,74.60
2022-09-20T17:46:46.617Z,74.60
2022-09-20T17:49:16.564Z,74.50
2022-09-20T17:51:46.650Z,74.50
2022-09-20T17:54:14.338Z,74.90
2022-09-20T17:56:43.835Z,75.00
2022-09-20T17:59:12.368Z,74.80
2022-09-20T18:01:40.512Z,74.60
2022-09-20T18:04:09.542Z,74.60
2022-09-20T18:06:38.384Z,74.50
2022-09-20T18:09:08.174Z,74.40
2022-09-20T18:11:48.949Z,75.20
2022-09-20T18:14:23.224Z,74.60
2022-09-20T18:16:53.039Z,74.50
2022-09-20T18:19:22.449Z,74.30
2022-09-20T18:21:50.145Z,74.10
2022-09-20T18:24:17.698Z,73.90
2022-09-20T18:26:45.210Z,74.10
2022-09-20T18:29:16.583Z,74.30
2022-09-20T18:31:45.127Z,74.40
2022-09-20T18:34:18.402Z,74.40
2022-09-20T18:36:52.992Z,74.60
2022-09-20T18:39:28.947Z,74.60
2022-09-20T18:41:56.471Z,74.80
2022-09-20T18:44:26.060Z,74.50
2022-09-20T18:46:54.875Z,74.30
2022-09-20T18:49:22.531Z,74.30
2022-09-20T18:51:50.274Z,74.80
2022-09-20T18:54:18.990Z,75.00
2022-09-20T18:56:48.803Z,75.00
2022-09-20T18:59:23.107Z,74.90
2022-09-20T19:02:05.551Z,74.50
2022-09-20T19:05:00.102Z,74.70
2022-09-20T19:07:27.535Z,74.90
2022-09-20T19:10:06.222Z,74.70
2022-09-20T19:12:51.651Z,75.00
2022-09-20T19:15:41.036Z,75.10
2022-09-20T19:18:35.729Z,75.10
2022-09-20T19:21:20.883Z,74.90
2022-09-20T19:24:39.422Z,74.70
2022-09-20T19:27:11.140Z,75.90
2022-09-20T19:29:39.366Z,75.00
2022-09-20T19:32:16.907Z,75.10
2022-09-20T19:34:45.349Z,75.00
2022-09-20T19:37:30.336Z,75.00
2022-09-20T19:40:00.607Z,75.50
2022-09-20T19:42:42.387Z,75.50
2022-09-20T19:45:37.141Z,75.80
2022-09-20T19:48:16.540Z,76.00
2022-09-20T19:50:47.123Z,75.80
2022-09-20T19:53:17.247Z,75.80
2022-09-20T19:55:47.963Z,75.80
2022-09-20T19:58:15.932Z,75.70
2022-09-20T20:00:44.943Z,75.60
2022-09-20T20:03:14.276Z,75.50
2022-09-20T20:06:08.307Z,75.40
2022-09-20T20:08:50.711Z,75.70
2022-09-20T20:11:39.355Z,75.60
2022-09-20T20:14:28.616Z,75.60
2022-09-20T20:17:23.608Z,75.90
2022-09-20T20:20:19.587Z,76.10
2022-09-20T20:23:07.291Z,75.80
2022-09-20T20:25:40.554Z,75.70
2022-09-20T20:28:09.341Z,75.50
2022-09-20T20:30:36.976Z,75.60
2022-09-20T20:33:05.868Z,75.70
2022-09-20T20:35:33.196Z,76.10
2022-09-20T20:38:00.603Z,75.90
2022-09-20T20:40:28.476Z,75.80
2022-09-20T20:43:01.917Z,75.70
2022-09-20T20:45:32.220Z,75.80
2022-09-20T20:47:59.502Z,75.90
2022-09-20T20:50:27.951Z,75.90
2022-09-20T20:52:57.125Z,75.90
2022-09-20T20:55:24.908Z,76.00
2022-09-20T20:57:59.491Z,76.20
2022-09-20T21:00:29.150Z,76.30
2022-09-20T21:03:01.477Z,76.30
2022-09-20T21:05:29.926Z,76.20
2022-09-20T21:07:58.574Z,76.50
2022-09-20T21:10:26.886Z,76.30
2022-09-20T21:12:54.955Z,76.30
2022-09-20T21:15:22.535Z,76.20
2022-09-20T21:17:54.018Z,76.20
2022-09-20T21:20:22.345Z,76.30
2022-09-20T21:22:49.859Z,76.10
2022-09-20T21:25:17.067Z,75.80
2022-09-20T21:27:45.666Z,75.80
2022-09-20T21:30:13.164Z,75.90
2022-09-20T21:32:40.731Z,75.70
2022-09-20T21:35:08.728Z,75.60
2022-09-20T21:37:36.291Z,75.90
2022-09-20T21:40:03.933Z,75.70
2022-09-20T21:42:31.439Z,76.50
2022-09-20T21:44:58.652Z,76.50
2022-09-20T21:47:26.284Z,76.30
2022-09-20T21:49:53.559Z,76.10
2022-09-20T21:52:21.076Z,76.10
2022-09-20T21:54:48.830Z,76.30
2022-09-20T21:57:16.280Z,76.60
2022-09-20T21:59:43.703Z,76.70
2022-09-20T22:02:11.144Z,76.60
2022-09-20T22:04:38.499Z,76.50
2022-09-20T22:07:05.821Z,76.40
2022-09-20T22:09:33.154Z,76.40
2022-09-20T22:12:00.892Z,76.30
2022-09-20T22:14:28.170Z,76.20
2022-09-20T22:16:55.532Z,76.30
2022-09-20T22:19:22.846Z,76.30
2022-09-20T22:21:51.386Z,76.30
2022-09-20T22:24:18.920Z,76.20
2022-09-20T22:26:48.507Z,76.10
2022-09-20T22:29:16.827Z,76.00
2022-09-20T22:31:46.125Z,76.00
2022-09-20T22:34:15.757Z,76.50
2022-09-20T22:36:43.762Z,77.20
2022-09-20T22:39:12.397Z,77.20
2022-09-20T22:41:41.353Z,77.30
2022-09-20T22:44:09.335Z,77.40
2022-09-20T22:46:38.187Z,77.40
2022-09-20T22:49:06.672Z,77.40
2022-09-20T22:51:34.379Z,77.30
2022-09-20T22:54:06.897Z,77.50
2022-09-20T22:56:35.165Z,77.90
2022-09-20T22:59:13.735Z,78.10
2022-09-20T23:01:46.331Z,78.40
2022-09-20T23:04:16.404Z,78.50
2022-09-20T23:06:51.774Z,78.50
2022-09-20T23:09:19.947Z,78.80
2022-09-20T23:11:47.885Z,78.90
2022-09-20T23:14:18.189Z,78.80
2022-09-20T23:16:46.500Z,78.80
2022-09-20T23:19:14.548Z,78.90
2022-09-20T23:21:43.451Z,79.10
2022-09-20T23:24:12.804Z,79.00
2022-09-20T23:26:41.666Z,78.80
2022-09-20T23:29:11.912Z,78.70
2022-09-20T23:31:41.727Z,78.70
2022-09-20T23:34:09.694Z,78.80
2022-09-20T23:36:39.069Z,79.00
2022-09-20T23:39:08.091Z,79.10
2022-09-20T23:41:36.768Z,79.10
2022-09-20T23:44:09.611Z,79.20
2022-09-20T23:46:38.280Z,79.20
2022-09-20T23:49:06.602Z,79.10
2022-09-20T23:51:35.556Z,79.10
2022-09-20T23:54:03.925Z,79.00
2022-09-20T23:56:31.952Z,79.10
2022-09-20T23:58:59.227Z,79.10
